Air Navigation Services of Czech Republic
Airport: LKKV Updated:  23.09.2020 06:30:23  UTC
 METAR LKKV 23.09. 06:30 ...
METAR LKKV 230630Z 12002KT 9999 MIFG NSC 13/12 Q1009 RMK REG QNH 1006=
 TAF LKKV 23.09. 05:00 ...
TAF LKKV 230500Z 2306/2412 27006KT 9999 BKN023      TEMPO 2306/2316 8000 SHRA SCT020TCU      PROB30 TEMPO 2306/2315 4000 TSRA SCT017CB      BECMG 2316/2318 22005KT CAVOK      TEMPO 2400/2407 2000 BR SCT010      BECMG 2407/2409 9999 BKN020      TEMPO 2410/2412 23014KT=